createdAt,value
2018-07-23T00:03:12.943Z,74.10
2018-07-23T00:13:19.137Z,74.80
2018-07-23T00:18:22.363Z,75.20
2018-07-23T00:23:25.603Z,75.20
2018-07-23T00:28:28.810Z,75.20
2018-07-23T00:33:32.023Z,75.40
2018-07-23T00:38:35.235Z,75.00
2018-07-23T00:43:38.467Z,74.70
2018-07-23T00:48:41.683Z,74.30
2018-07-23T00:53:44.904Z,75.20
2018-07-23T00:58:48.140Z,75.30
2018-07-23T01:08:54.378Z,75.20
2018-07-23T01:13:57.534Z,75.30
2018-07-23T01:19:00.692Z,76.10
2018-07-23T01:24:03.855Z,76.60
2018-07-23T01:29:07.551Z,76.70
2018-07-23T01:34:10.742Z,77.80
2018-07-23T01:39:13.931Z,78.30
2018-07-23T01:44:17.089Z,78.60
2018-07-23T01:49:20.242Z,78.80
2018-07-23T01:54:23.510Z,80.30
2018-07-23T01:59:26.670Z,81.30
2018-07-23T02:04:29.850Z,82.80
2018-07-23T02:09:33.027Z,82.90
2018-07-23T02:14:36.194Z,83.60
2018-07-23T02:19:39.374Z,83.90
2018-07-23T02:24:42.548Z,84.40
2018-07-23T02:29:45.726Z,85.90
2018-07-23T02:34:48.893Z,85.80
2018-07-23T02:39:52.046Z,85.20
2018-07-23T02:44:55.223Z,86.10
2018-07-23T02:49:58.406Z,86.10
2018-07-23T02:55:01.868Z,86.40
2018-07-23T03:00:05.377Z,87.10
2018-07-23T03:05:08.559Z,86.70
2018-07-23T03:10:11.755Z,87.70
2018-07-23T03:15:14.950Z,87.30
2018-07-23T03:20:18.130Z,87.50
2018-07-23T03:25:21.294Z,87.60
2018-07-23T03:30:24.494Z,87.60
2018-07-23T03:35:27.686Z,87.70
2018-07-23T03:40:30.871Z,89.20
2018-07-23T03:45:34.062Z,89.10
2018-07-23T03:50:37.239Z,89.40
2018-07-23T03:55:40.602Z,88.60
2018-07-23T04:00:44.106Z,88.80
2018-07-23T04:05:47.296Z,87.90
2018-07-23T04:10:50.562Z,88.20
2018-07-23T04:15:53.691Z,88.30
2018-07-23T04:20:56.863Z,87.90
2018-07-23T04:26:00.047Z,86.40
2018-07-23T04:31:03.214Z,82.10
2018-07-23T04:36:06.395Z,76.40
2018-07-23T04:41:09.538Z,72.00
2018-07-23T04:46:12.690Z,70.10
2018-07-23T04:51:15.843Z,67.80
2018-07-23T04:56:19.011Z,65.50
2018-07-23T05:06:25.098Z,62.90
2018-07-23T05:11:28.262Z,62.20
2018-07-23T05:16:31.411Z,59.40
2018-07-23T05:21:34.575Z,57.20
2018-07-23T05:26:37.731Z,54.40
2018-07-23T05:31:41.020Z,54.00
2018-07-23T05:36:44.154Z,52.60
2018-07-23T05:41:47.310Z,51.90
2018-07-23T05:46:50.480Z,54.80
2018-07-23T05:51:53.691Z,52.80
2018-07-23T05:56:56.838Z,51.40
2018-07-23T06:01:59.982Z,48.20
2018-07-23T06:07:03.292Z,48.30
2018-07-23T06:12:06.470Z,50.10
2018-07-23T06:17:09.647Z,50.20
2018-07-23T06:22:12.782Z,49.10
2018-07-23T06:27:15.939Z,48.40
2018-07-23T06:32:19.098Z,46.70
2018-07-23T06:37:22.242Z,47.50
2018-07-23T06:42:25.470Z,49.90
2018-07-23T06:47:28.622Z,50.60
2018-07-23T06:52:31.814Z,48.80
2018-07-23T06:57:34.991Z,46.40
2018-07-23T07:02:38.182Z,46.30
2018-07-23T07:07:41.355Z,43.90
2018-07-23T07:12:44.510Z,45.10
2018-07-23T07:17:47.822Z,42.70
2018-07-23T07:22:50.996Z,43.00
2018-07-23T07:27:54.194Z,43.60
2018-07-23T07:32:57.372Z,41.00
2018-07-23T07:38:00.554Z,41.20
2018-07-23T07:43:03.806Z,41.60
2018-07-23T07:48:07.171Z,40.40
2018-07-23T07:53:10.332Z,43.00
2018-07-23T07:58:13.640Z,44.80
2018-07-23T08:03:16.796Z,41.90
2018-07-23T08:08:19.967Z,40.60
2018-07-23T08:13:23.131Z,40.00
2018-07-23T08:18:26.294Z,41.70
2018-07-23T08:23:29.511Z,43.00
2018-07-23T08:28:32.663Z,41.10
2018-07-23T08:33:35.844Z,39.40
2018-07-23T08:38:39.082Z,38.70
2018-07-23T08:43:42.178Z,37.90
2018-07-23T08:48:45.387Z,37.70
2018-07-23T08:53:48.531Z,39.00
2018-07-23T08:58:51.710Z,37.20
2018-07-23T09:03:54.956Z,36.00
2018-07-23T09:08:58.154Z,35.90
2018-07-23T09:14:01.311Z,37.20
2018-07-23T09:19:04.698Z,37.20
2018-07-23T09:24:07.847Z,36.90
2018-07-23T09:29:11.000Z,38.30
2018-07-23T09:34:14.140Z,38.10
2018-07-23T09:39:17.278Z,38.60
2018-07-23T09:44:20.441Z,37.50
2018-07-23T09:49:23.594Z,37.70
2018-07-23T09:54:26.744Z,35.60
2018-07-23T09:59:29.909Z,35.60
2018-07-23T10:04:33.212Z,35.20
2018-07-23T10:09:36.377Z,35.50
2018-07-23T10:14:39.580Z,36.20
2018-07-23T10:19:42.739Z,38.40
2018-07-23T10:24:45.898Z,37.10
2018-07-23T10:29:49.058Z,35.90
2018-07-23T10:34:52.210Z,37.10
2018-07-23T10:39:55.466Z,37.80
2018-07-23T10:44:58.626Z,38.70
2018-07-23T10:50:01.823Z,36.80
2018-07-23T10:55:05.011Z,35.80
2018-07-23T11:00:08.462Z,37.30
2018-07-23T11:05:11.639Z,37.10
2018-07-23T11:10:14.801Z,35.70
2018-07-23T11:15:17.958Z,36.20
2018-07-23T11:20:21.102Z,38.10
2018-07-23T11:25:39.087Z,38.40
2018-07-23T11:30:27.422Z,39.70
2018-07-23T11:35:30.653Z,41.20
2018-07-23T11:40:33.795Z,39.20
2018-07-23T11:45:36.931Z,39.60
2018-07-23T11:50:40.124Z,39.40
2018-07-23T11:55:43.242Z,42.20
2018-07-23T12:00:46.379Z,42.40
2018-07-23T12:05:49.556Z,45.00
2018-07-23T12:10:52.744Z,46.40
2018-07-23T12:15:55.914Z,46.70
2018-07-23T12:20:59.085Z,48.80
2018-07-23T12:26:02.256Z,49.50
2018-07-23T12:31:05.523Z,49.20
2018-07-23T12:36:09.243Z,49.20
2018-07-23T12:41:12.414Z,48.50
2018-07-23T12:46:15.579Z,47.00
2018-07-23T12:51:18.810Z,47.10
2018-07-23T12:56:21.980Z,46.10
2018-07-23T13:01:25.231Z,45.30
2018-07-23T13:06:28.404Z,44.40
2018-07-23T13:11:31.572Z,43.60
2018-07-23T13:16:34.958Z,45.10
2018-07-23T13:21:38.195Z,46.80
2018-07-23T13:26:41.330Z,46.90
2018-07-23T13:31:44.663Z,46.20
2018-07-23T13:36:47.810Z,44.60
2018-07-23T13:41:50.946Z,45.10
2018-07-23T13:46:54.110Z,46.00
2018-07-23T13:51:57.260Z,45.20
2018-07-23T13:57:00.640Z,45.60
2018-07-23T14:02:03.806Z,45.30
2018-07-23T14:07:07.018Z,44.80
2018-07-23T14:12:10.190Z,45.30
2018-07-23T14:17:13.367Z,45.00
2018-07-23T14:22:16.547Z,44.50
2018-07-23T14:27:19.850Z,45.10
2018-07-23T14:32:23.210Z,44.90
2018-07-23T14:37:26.508Z,43.60
2018-07-23T14:42:29.879Z,45.30
2018-07-23T14:47:33.332Z,45.40
2018-07-23T14:52:36.670Z,45.30
2018-07-23T14:57:40.481Z,44.70
2018-07-23T15:02:43.723Z,45.10
2018-07-23T15:07:46.984Z,44.50
2018-07-23T15:12:50.206Z,44.20
2018-07-23T15:17:53.392Z,44.20
2018-07-23T15:22:57.372Z,44.40
2018-07-23T15:28:00.666Z,44.20
2018-07-23T15:38:07.311Z,45.90
2018-07-23T15:43:10.534Z,46.10
2018-07-23T15:48:14.007Z,45.40
2018-07-23T15:53:17.307Z,45.60
2018-07-23T15:58:20.647Z,45.40
2018-07-23T16:03:23.858Z,45.00
2018-07-23T16:08:28.772Z,44.80
2018-07-23T16:13:32.130Z,44.90
2018-07-23T16:18:35.847Z,45.00
2018-07-23T16:23:39.418Z,44.20
2018-07-23T16:28:43.602Z,44.60
2018-07-23T16:33:46.971Z,44.40
2018-07-23T16:38:50.958Z,45.20
2018-07-23T16:43:54.322Z,44.80
2018-07-23T16:54:00.576Z,44.70
2018-07-23T16:59:04.008Z,44.90
2018-07-23T17:04:07.166Z,44.50
2018-07-23T17:09:11.882Z,44.30
2018-07-23T17:14:15.064Z,45.40
2018-07-23T17:19:18.206Z,44.70
2018-07-23T17:29:25.294Z,44.90
2018-07-23T17:34:28.454Z,45.30
2018-07-23T17:39:31.606Z,44.90
2018-07-23T17:44:34.757Z,45.50
2018-07-23T17:49:38.319Z,45.90
2018-07-23T17:54:41.590Z,45.20
2018-07-23T17:59:44.767Z,45.70
2018-07-23T18:04:47.968Z,47.40
2018-07-23T18:09:51.122Z,46.40
2018-07-23T18:14:54.455Z,46.20
2018-07-23T18:19:58.057Z,47.30
2018-07-23T18:25:01.682Z,47.60
2018-07-23T18:30:06.469Z,48.20
2018-07-23T18:35:09.781Z,47.20
2018-07-23T18:40:13.012Z,47.60
2018-07-23T18:45:16.193Z,48.30
2018-07-23T18:54:52.386Z,47.90
2018-07-23T18:59:55.546Z,50.70
2018-07-23T19:04:58.926Z,52.00
2018-07-23T19:10:02.095Z,52.20
2018-07-23T19:15:05.806Z,52.20
2018-07-23T19:20:09.046Z,52.00
2018-07-23T19:25:12.130Z,54.20
2018-07-23T19:30:15.294Z,55.20
